sensor_id;sensor_type;location;lat;lon;timestamp;P1;durP1;ratioP1;P2;durP2;ratioP2
79088;SDS011;68489;50.286;9.452;2023-12-07T00:01:09;15.10;;;4.55;;
79088;SDS011;68489;50.286;9.452;2023-12-07T00:03:34;14.93;;;6.00;;
79088;SDS011;68489;50.286;9.452;2023-12-07T00:06:00;17.08;;;5.38;;
79088;SDS011;68489;50.286;9.452;2023-12-07T00:08:25;15.00;;;5.50;;
79088;SDS011;68489;50.286;9.452;2023-12-07T00:10:51;16.73;;;5.38;;
79088;SDS011;68489;50.286;9.452;2023-12-07T00:13:16;14.88;;;5.03;;
79088;SDS011;68489;50.286;9.452;2023-12-07T00:15:42;16.10;;;4.40;;
79088;SDS011;68489;50.286;9.452;2023-12-07T00:18:08;13.73;;;5.68;;
79088;SDS011;68489;50.286;9.452;2023-12-07T00:20:33;14.13;;;5.40;;
79088;SDS011;68489;50.286;9.452;2023-12-07T00:22:59;12.88;;;4.75;;
79088;SDS011;68489;50.286;9.452;2023-12-07T00:25:25;17.00;;;5.97;;
79088;SDS011;68489;50.286;9.452;2023-12-07T00:27:50;15.93;;;6.55;;
79088;SDS011;68489;50.286;9.452;2023-12-07T00:30:16;15.80;;;5.10;;
79088;SDS011;68489;50.286;9.452;2023-12-07T00:32:41;16.33;;;5.75;;
79088;SDS011;68489;50.286;9.452;2023-12-07T00:35:09;15.02;;;5.68;;
79088;SDS011;68489;50.286;9.452;2023-12-07T00:37:34;22.92;;;6.03;;
79088;SDS011;68489;50.286;9.452;2023-12-07T00:40:00;15.40;;;5.78;;
79088;SDS011;68489;50.286;9.452;2023-12-07T00:42:26;12.93;;;5.63;;
79088;SDS011;68489;50.286;9.452;2023-12-07T00:44:52;18.92;;;6.13;;
79088;SDS011;68489;50.286;9.452;2023-12-07T00:47:18;15.00;;;4.88;;
79088;SDS011;68489;50.286;9.452;2023-12-07T00:49:43;11.73;;;4.13;;
79088;SDS011;68489;50.286;9.452;2023-12-07T00:52:08;14.75;;;4.65;;
79088;SDS011;68489;50.286;9.452;2023-12-07T00:54:34;14.07;;;4.90;;
79088;SDS011;68489;50.286;9.452;2023-12-07T00:56:59;17.27;;;5.95;;
79088;SDS011;68489;50.286;9.452;2023-12-07T00:59:24;13.13;;;4.93;;
79088;SDS011;68489;50.286;9.452;2023-12-07T01:01:50;14.32;;;4.32;;
79088;SDS011;68489;50.286;9.452;2023-12-07T01:04:15;17.70;;;5.13;;
79088;SDS011;68489;50.286;9.452;2023-12-07T01:06:42;17.77;;;5.03;;
79088;SDS011;68489;50.286;9.452;2023-12-07T01:09:07;14.38;;;4.63;;
79088;SDS011;68489;50.286;9.452;2023-12-07T01:11:38;16.80;;;5.13;;
79088;SDS011;68489;50.286;9.452;2023-12-07T01:14:03;15.55;;;5.22;;
79088;SDS011;68489;50.286;9.452;2023-12-07T01:16:28;14.97;;;4.97;;
79088;SDS011;68489;50.286;9.452;2023-12-07T01:18:53;16.33;;;6.10;;
79088;SDS011;68489;50.286;9.452;2023-12-07T01:21:19;16.67;;;4.37;;
79088;SDS011;68489;50.286;9.452;2023-12-07T01:23:44;14.73;;;5.83;;
79088;SDS011;68489;50.286;9.452;2023-12-07T01:26:10;18.85;;;5.20;;
79088;SDS011;68489;50.286;9.452;2023-12-07T01:28:35;14.03;;;5.20;;
79088;SDS011;68489;50.286;9.452;2023-12-07T01:31:00;16.00;;;6.53;;
79088;SDS011;68489;50.286;9.452;2023-12-07T01:33:26;14.10;;;5.53;;
79088;SDS011;68489;50.286;9.452;2023-12-07T01:35:51;14.93;;;5.87;;
79088;SDS011;68489;50.286;9.452;2023-12-07T01:38:16;12.33;;;3.83;;
79088;SDS011;68489;50.286;9.452;2023-12-07T01:40:42;16.97;;;5.47;;
79088;SDS011;68489;50.286;9.452;2023-12-07T01:43:07;14.73;;;4.33;;
79088;SDS011;68489;50.286;9.452;2023-12-07T01:45:32;13.70;;;4.53;;
79088;SDS011;68489;50.286;9.452;2023-12-07T01:47:58;13.50;;;4.38;;
79088;SDS011;68489;50.286;9.452;2023-12-07T01:50:24;14.43;;;4.38;;
79088;SDS011;68489;50.286;9.452;2023-12-07T01:52:53;13.32;;;4.85;;
79088;SDS011;68489;50.286;9.452;2023-12-07T01:55:22;16.02;;;5.90;;
79088;SDS011;68489;50.286;9.452;2023-12-07T01:57:47;14.85;;;5.40;;
79088;SDS011;68489;50.286;9.452;2023-12-07T02:00:14;12.52;;;4.15;;
79088;SDS011;68489;50.286;9.452;2023-12-07T02:02:40;11.38;;;4.40;;
79088;SDS011;68489;50.286;9.452;2023-12-07T02:05:06;13.20;;;4.93;;
79088;SDS011;68489;50.286;9.452;2023-12-07T02:07:31;12.48;;;5.10;;
79088;SDS011;68489;50.286;9.452;2023-12-07T02:09:59;14.15;;;4.68;;
79088;SDS011;68489;50.286;9.452;2023-12-07T02:12:24;16.13;;;4.78;;
79088;SDS011;68489;50.286;9.452;2023-12-07T02:14:51;11.98;;;4.68;;
79088;SDS011;68489;50.286;9.452;2023-12-07T02:22:56;11.93;;;5.03;;
79088;SDS011;68489;50.286;9.452;2023-12-07T02:25:29;13.88;;;4.63;;
79088;SDS011;68489;50.286;9.452;2023-12-07T02:28:00;10.90;;;4.18;;
79088;SDS011;68489;50.286;9.452;2023-12-07T02:30:25;14.67;;;4.60;;
79088;SDS011;68489;50.286;9.452;2023-12-07T02:32:51;14.77;;;5.33;;
79088;SDS011;68489;50.286;9.452;2023-12-07T02:35:16;14.35;;;4.20;;
79088;SDS011;68489;50.286;9.452;2023-12-07T02:37:43;12.85;;;3.97;;
79088;SDS011;68489;50.286;9.452;2023-12-07T02:40:17;11.68;;;4.13;;
79088;SDS011;68489;50.286;9.452;2023-12-07T02:42:44;13.40;;;4.88;;
79088;SDS011;68489;50.286;9.452;2023-12-07T02:45:10;17.05;;;6.32;;
79088;SDS011;68489;50.286;9.452;2023-12-07T02:47:37;14.15;;;4.20;;
79088;SDS011;68489;50.286;9.452;2023-12-07T02:50:04;14.00;;;3.58;;
79088;SDS011;68489;50.286;9.452;2023-12-07T02:52:31;13.65;;;4.63;;
79088;SDS011;68489;50.286;9.452;2023-12-07T02:54:56;14.45;;;4.82;;
79088;SDS011;68489;50.286;9.452;2023-12-07T02:57:22;12.70;;;4.63;;
79088;SDS011;68489;50.286;9.452;2023-12-07T02:59:47;12.88;;;5.05;;
79088;SDS011;68489;50.286;9.452;2023-12-07T03:02:13;12.68;;;4.18;;
79088;SDS011;68489;50.286;9.452;2023-12-07T03:04:38;15.00;;;4.93;;
79088;SDS011;68489;50.286;9.452;2023-12-07T03:07:03;13.63;;;4.70;;
79088;SDS011;68489;50.286;9.452;2023-12-07T03:09:29;10.30;;;4.25;;
79088;SDS011;68489;50.286;9.452;2023-12-07T03:11:55;12.27;;;3.90;;
79088;SDS011;68489;50.286;9.452;2023-12-07T03:14:20;12.90;;;4.33;;
79088;SDS011;68489;50.286;9.452;2023-12-07T03:16:45;12.27;;;4.37;;
79088;SDS011;68489;50.286;9.452;2023-12-07T03:19:11;13.17;;;3.67;;
79088;SDS011;68489;50.286;9.452;2023-12-07T03:21:39;12.10;;;4.57;;
79088;SDS011;68489;50.286;9.452;2023-12-07T03:24:06;14.13;;;4.07;;
79088;SDS011;68489;50.286;9.452;2023-12-07T03:26:33;13.88;;;4.53;;
79088;SDS011;68489;50.286;9.452;2023-12-07T03:28:58;10.70;;;4.07;;
79088;SDS011;68489;50.286;9.452;2023-12-07T03:31:24;14.90;;;4.57;;
79088;SDS011;68489;50.286;9.452;2023-12-07T03:33:49;13.93;;;4.77;;
79088;SDS011;68489;50.286;9.452;2023-12-07T03:36:14;13.43;;;3.90;;
79088;SDS011;68489;50.286;9.452;2023-12-07T03:38:39;15.95;;;4.82;;
79088;SDS011;68489;50.286;9.452;2023-12-07T03:41:05;11.80;;;3.07;;
79088;SDS011;68489;50.286;9.452;2023-12-07T03:43:30;11.57;;;4.53;;
79088;SDS011;68489;50.286;9.452;2023-12-07T03:45:56;12.07;;;3.10;;
79088;SDS011;68489;50.286;9.452;2023-12-07T03:48:21;11.10;;;4.10;;
79088;SDS011;68489;50.286;9.452;2023-12-07T03:50:46;10.82;;;3.22;;
79088;SDS011;68489;50.286;9.452;2023-12-07T03:53:12;12.03;;;4.10;;
79088;SDS011;68489;50.286;9.452;2023-12-07T03:55:37;12.18;;;3.10;;
79088;SDS011;68489;50.286;9.452;2023-12-07T03:58:03;11.02;;;3.88;;
79088;SDS011;68489;50.286;9.452;2023-12-07T04:00:29;10.18;;;3.50;;
79088;SDS011;68489;50.286;9.452;2023-12-07T04:02:56;10.50;;;3.53;;
79088;SDS011;68489;50.286;9.452;2023-12-07T04:05:22;15.48;;;3.50;;
79088;SDS011;68489;50.286;9.452;2023-12-07T04:07:47;11.83;;;3.77;;
79088;SDS011;68489;50.286;9.452;2023-12-07T04:10:12;11.13;;;4.47;;
79088;SDS011;68489;50.286;9.452;2023-12-07T04:12:38;12.10;;;4.05;;
79088;SDS011;68489;50.286;9.452;2023-12-07T04:15:03;16.38;;;4.85;;
79088;SDS011;68489;50.286;9.452;2023-12-07T04:17:29;18.45;;;5.70;;
79088;SDS011;68489;50.286;9.452;2023-12-07T04:19:54;12.98;;;3.47;;
79088;SDS011;68489;50.286;9.452;2023-12-07T04:22:20;12.50;;;3.90;;
79088;SDS011;68489;50.286;9.452;2023-12-07T04:24:45;14.93;;;4.50;;
79088;SDS011;68489;50.286;9.452;2023-12-07T04:27:10;13.90;;;3.73;;
79088;SDS011;68489;50.286;9.452;2023-12-07T04:29:36;13.98;;;4.68;;
79088;SDS011;68489;50.286;9.452;2023-12-07T04:32:01;11.68;;;4.20;;
79088;SDS011;68489;50.286;9.452;2023-12-07T04:34:27;12.20;;;4.43;;
79088;SDS011;68489;50.286;9.452;2023-12-07T04:36:52;9.55;;;3.53;;
79088;SDS011;68489;50.286;9.452;2023-12-07T04:39:18;13.07;;;3.92;;
79088;SDS011;68489;50.286;9.452;2023-12-07T04:41:43;11.48;;;4.40;;
79088;SDS011;68489;50.286;9.452;2023-12-07T04:44:08;15.70;;;4.17;;
79088;SDS011;68489;50.286;9.452;2023-12-07T04:46:34;12.02;;;4.40;;
79088;SDS011;68489;50.286;9.452;2023-12-07T04:49:00;12.88;;;3.80;;
79088;SDS011;68489;50.286;9.452;2023-12-07T04:51:26;12.40;;;4.28;;
79088;SDS011;68489;50.286;9.452;2023-12-07T04:53:51;15.75;;;5.43;;
79088;SDS011;68489;50.286;9.452;2023-12-07T04:56:16;10.27;;;3.70;;
79088;SDS011;68489;50.286;9.452;2023-12-07T04:58:42;13.68;;;4.18;;
79088;SDS011;68489;50.286;9.452;2023-12-07T05:01:07;15.57;;;4.45;;
79088;SDS011;68489;50.286;9.452;2023-12-07T05:03:32;9.43;;;4.38;;
79088;SDS011;68489;50.286;9.452;2023-12-07T05:05:58;14.27;;;3.47;;
79088;SDS011;68489;50.286;9.452;2023-12-07T05:08:23;10.27;;;3.07;;
79088;SDS011;68489;50.286;9.452;2023-12-07T05:10:48;10.25;;;3.15;;
79088;SDS011;68489;50.286;9.452;2023-12-07T05:13:14;10.13;;;3.47;;
79088;SDS011;68489;50.286;9.452;2023-12-07T05:15:39;11.13;;;3.38;;
79088;SDS011;68489;50.286;9.452;2023-12-07T05:18:05;10.73;;;3.45;;
79088;SDS011;68489;50.286;9.452;2023-12-07T05:20:30;13.68;;;4.60;;
79088;SDS011;68489;50.286;9.452;2023-12-07T05:22:56;11.43;;;4.45;;
79088;SDS011;68489;50.286;9.452;2023-12-07T05:25:21;12.23;;;3.50;;
79088;SDS011;68489;50.286;9.452;2023-12-07T05:27:46;11.00;;;4.17;;
79088;SDS011;68489;50.286;9.452;2023-12-07T05:30:12;13.03;;;3.93;;
79088;SDS011;68489;50.286;9.452;2023-12-07T05:32:38;10.95;;;3.70;;
79088;SDS011;68489;50.286;9.452;2023-12-07T05:35:03;11.00;;;3.90;;
79088;SDS011;68489;50.286;9.452;2023-12-07T05:37:29;11.75;;;3.95;;
79088;SDS011;68489;50.286;9.452;2023-12-07T05:39:54;15.25;;;4.45;;
79088;SDS011;68489;50.286;9.452;2023-12-07T05:42:19;11.87;;;3.90;;
79088;SDS011;68489;50.286;9.452;2023-12-07T05:44:45;10.55;;;3.85;;
79088;SDS011;68489;50.286;9.452;2023-12-07T05:47:10;17.65;;;4.03;;
79088;SDS011;68489;50.286;9.452;2023-12-07T05:49:36;11.47;;;4.17;;
79088;SDS011;68489;50.286;9.452;2023-12-07T05:52:01;11.48;;;3.90;;
79088;SDS011;68489;50.286;9.452;2023-12-07T05:54:27;15.68;;;3.55;;
79088;SDS011;68489;50.286;9.452;2023-12-07T05:56:53;14.88;;;5.75;;
79088;SDS011;68489;50.286;9.452;2023-12-07T05:59:18;12.23;;;4.13;;
79088;SDS011;68489;50.286;9.452;2023-12-07T06:01:44;15.10;;;5.23;;
79088;SDS011;68489;50.286;9.452;2023-12-07T06:04:09;12.52;;;4.18;;
79088;SDS011;68489;50.286;9.452;2023-12-07T06:06:37;15.15;;;4.88;;
79088;SDS011;68489;50.286;9.452;2023-12-07T06:09:02;14.07;;;4.72;;
79088;SDS011;68489;50.286;9.452;2023-12-07T06:11:28;12.70;;;4.90;;
79088;SDS011;68489;50.286;9.452;2023-12-07T06:13:53;12.37;;;4.83;;
79088;SDS011;68489;50.286;9.452;2023-12-07T06:16:19;13.40;;;4.80;;
79088;SDS011;68489;50.286;9.452;2023-12-07T06:18:45;14.63;;;4.32;;
79088;SDS011;68489;50.286;9.452;2023-12-07T06:21:10;15.17;;;4.17;;
79088;SDS011;68489;50.286;9.452;2023-12-07T06:23:36;9.05;;;2.92;;
79088;SDS011;68489;50.286;9.452;2023-12-07T06:26:01;13.53;;;3.87;;
79088;SDS011;68489;50.286;9.452;2023-12-07T06:28:27;12.52;;;4.32;;
79088;SDS011;68489;50.286;9.452;2023-12-07T06:30:53;12.60;;;4.20;;
79088;SDS011;68489;50.286;9.452;2023-12-07T06:33:18;13.55;;;4.40;;
79088;SDS011;68489;50.286;9.452;2023-12-07T06:35:43;12.77;;;3.93;;
79088;SDS011;68489;50.286;9.452;2023-12-07T06:38:08;11.77;;;4.40;;
79088;SDS011;68489;50.286;9.452;2023-12-07T06:40:34;13.07;;;4.03;;
79088;SDS011;68489;50.286;9.452;2023-12-07T06:42:59;20.13;;;5.23;;
79088;SDS011;68489;50.286;9.452;2023-12-07T06:45:24;12.95;;;3.63;;
79088;SDS011;68489;50.286;9.452;2023-12-07T06:47:50;13.45;;;3.85;;
79088;SDS011;68489;50.286;9.452;2023-12-07T06:50:16;12.38;;;3.85;;
79088;SDS011;68489;50.286;9.452;2023-12-07T06:52:42;11.55;;;4.20;;
79088;SDS011;68489;50.286;9.452;2023-12-07T06:55:07;17.73;;;4.05;;
79088;SDS011;68489;50.286;9.452;2023-12-07T06:57:35;17.33;;;5.30;;
79088;SDS011;68489;50.286;9.452;2023-12-07T07:00:00;18.50;;;4.07;;
79088;SDS011;68489;50.286;9.452;2023-12-07T07:02:30;12.35;;;4.35;;
79088;SDS011;68489;50.286;9.452;2023-12-07T07:04:55;11.53;;;3.47;;
79088;SDS011;68489;50.286;9.452;2023-12-07T07:07:21;13.60;;;3.97;;
79088;SDS011;68489;50.286;9.452;2023-12-07T07:09:46;12.80;;;3.80;;
79088;SDS011;68489;50.286;9.452;2023-12-07T07:12:11;12.65;;;4.22;;
79088;SDS011;68489;50.286;9.452;2023-12-07T07:14:36;10.13;;;3.23;;
79088;SDS011;68489;50.286;9.452;2023-12-07T07:17:02;11.02;;;4.35;;
79088;SDS011;68489;50.286;9.452;2023-12-07T07:19:29;11.90;;;4.25;;
79088;SDS011;68489;50.286;9.452;2023-12-07T07:21:55;13.95;;;4.15;;
79088;SDS011;68489;50.286;9.452;2023-12-07T07:24:20;11.18;;;3.85;;
79088;SDS011;68489;50.286;9.452;2023-12-07T07:26:45;11.10;;;3.78;;
79088;SDS011;68489;50.286;9.452;2023-12-07T07:29:11;10.67;;;3.80;;
79088;SDS011;68489;50.286;9.452;2023-12-07T07:31:36;13.85;;;4.32;;
79088;SDS011;68489;50.286;9.452;2023-12-07T07:34:01;11.05;;;3.75;;
79088;SDS011;68489;50.286;9.452;2023-12-07T07:36:27;13.80;;;4.05;;
79088;SDS011;68489;50.286;9.452;2023-12-07T07:38:52;14.35;;;4.72;;
79088;SDS011;68489;50.286;9.452;2023-12-07T07:41:18;12.00;;;3.57;;
79088;SDS011;68489;50.286;9.452;2023-12-07T07:43:43;10.27;;;3.73;;
79088;SDS011;68489;50.286;9.452;2023-12-07T07:46:08;12.10;;;3.63;;
79088;SDS011;68489;50.286;9.452;2023-12-07T07:48:34;14.23;;;3.50;;
79088;SDS011;68489;50.286;9.452;2023-12-07T07:50:59;11.47;;;3.77;;
79088;SDS011;68489;50.286;9.452;2023-12-07T07:53:24;10.83;;;3.57;;
79088;SDS011;68489;50.286;9.452;2023-12-07T07:55:50;15.97;;;3.67;;
79088;SDS011;68489;50.286;9.452;2023-12-07T07:58:15;11.03;;;3.53;;
79088;SDS011;68489;50.286;9.452;2023-12-07T08:00:40;12.38;;;3.03;;
79088;SDS011;68489;50.286;9.452;2023-12-07T08:03:06;10.30;;;3.20;;
79088;SDS011;68489;50.286;9.452;2023-12-07T08:05:31;9.73;;;3.15;;
79088;SDS011;68489;50.286;9.452;2023-12-07T08:07:58;7.68;;;2.50;;
79088;SDS011;68489;50.286;9.452;2023-12-07T08:10:23;9.98;;;3.60;;
79088;SDS011;68489;50.286;9.452;2023-12-07T08:12:49;10.55;;;3.05;;
79088;SDS011;68489;50.286;9.452;2023-12-07T08:15:14;10.77;;;3.40;;
79088;SDS011;68489;50.286;9.452;2023-12-07T08:17:39;16.10;;;3.97;;
79088;SDS011;68489;50.286;9.452;2023-12-07T08:20:06;10.40;;;3.08;;
79088;SDS011;68489;50.286;9.452;2023-12-07T08:22:32;9.82;;;3.45;;
79088;SDS011;68489;50.286;9.452;2023-12-07T08:24:57;9.05;;;3.20;;
79088;SDS011;68489;50.286;9.452;2023-12-07T08:27:23;27.00;;;4.82;;
79088;SDS011;68489;50.286;9.452;2023-12-07T08:29:48;32.43;;;3.83;;
79088;SDS011;68489;50.286;9.452;2023-12-07T08:32:13;11.07;;;4.30;;
79088;SDS011;68489;50.286;9.452;2023-12-07T08:34:39;14.23;;;4.95;;
79088;SDS011;68489;50.286;9.452;2023-12-07T08:37:05;14.63;;;4.45;;
79088;SDS011;68489;50.286;9.452;2023-12-07T08:39:30;14.13;;;5.07;;
79088;SDS011;68489;50.286;9.452;2023-12-07T08:41:55;13.03;;;5.23;;
79088;SDS011;68489;50.286;9.452;2023-12-07T08:44:20;12.93;;;2.97;;
79088;SDS011;68489;50.286;9.452;2023-12-07T08:46:46;13.57;;;4.90;;
79088;SDS011;68489;50.286;9.452;2023-12-07T08:49:11;15.65;;;4.90;;
79088;SDS011;68489;50.286;9.452;2023-12-07T08:51:36;11.93;;;4.07;;
79088;SDS011;68489;50.286;9.452;2023-12-07T08:54:02;13.67;;;4.83;;
79088;SDS011;68489;50.286;9.452;2023-12-07T08:56:27;10.85;;;3.95;;
79088;SDS011;68489;50.286;9.452;2023-12-07T08:58:52;11.60;;;4.77;;
79088;SDS011;68489;50.286;9.452;2023-12-07T09:01:18;11.13;;;4.03;;
79088;SDS011;68489;50.286;9.452;2023-12-07T09:03:43;12.63;;;4.27;;
79088;SDS011;68489;50.286;9.452;2023-12-07T09:06:08;12.77;;;4.30;;
79088;SDS011;68489;50.286;9.452;2023-12-07T09:08:34;12.18;;;4.88;;
79088;SDS011;68489;50.286;9.452;2023-12-07T09:10:59;12.07;;;3.33;;
79088;SDS011;68489;50.286;9.452;2023-12-07T09:13:24;12.00;;;3.25;;
79088;SDS011;68489;50.286;9.452;2023-12-07T09:15:49;9.90;;;3.60;;
79088;SDS011;68489;50.286;9.452;2023-12-07T09:18:16;10.27;;;3.05;;
79088;SDS011;68489;50.286;9.452;2023-12-07T09:20:41;15.77;;;5.13;;
79088;SDS011;68489;50.286;9.452;2023-12-07T09:23:13;14.30;;;4.00;;
79088;SDS011;68489;50.286;9.452;2023-12-07T09:25:40;9.75;;;3.25;;
79088;SDS011;68489;50.286;9.452;2023-12-07T09:28:05;11.93;;;3.67;;
79088;SDS011;68489;50.286;9.452;2023-12-07T09:30:31;15.25;;;4.50;;
79088;SDS011;68489;50.286;9.452;2023-12-07T09:32:58;15.05;;;4.38;;
79088;SDS011;68489;50.286;9.452;2023-12-07T09:35:24;10.80;;;4.15;;
79088;SDS011;68489;50.286;9.452;2023-12-07T09:37:49;13.52;;;4.03;;
79088;SDS011;68489;50.286;9.452;2023-12-07T09:40:18;12.27;;;3.65;;
79088;SDS011;68489;50.286;9.452;2023-12-07T09:42:45;17.83;;;4.97;;
79088;SDS011;68489;50.286;9.452;2023-12-07T09:45:11;12.93;;;3.75;;
79088;SDS011;68489;50.286;9.452;2023-12-07T09:47:36;11.88;;;4.05;;
79088;SDS011;68489;50.286;9.452;2023-12-07T09:50:03;13.90;;;5.05;;
79088;SDS011;68489;50.286;9.452;2023-12-07T09:52:30;9.73;;;3.63;;
79088;SDS011;68489;50.286;9.452;2023-12-07T09:54:55;10.10;;;2.07;;
79088;SDS011;68489;50.286;9.452;2023-12-07T09:57:22;12.20;;;4.32;;
79088;SDS011;68489;50.286;9.452;2023-12-07T09:59:47;9.27;;;4.00;;
79088;SDS011;68489;50.286;9.452;2023-12-07T10:02:13;11.95;;;3.40;;
79088;SDS011;68489;50.286;9.452;2023-12-07T10:04:39;9.57;;;3.53;;
79088;SDS011;68489;50.286;9.452;2023-12-07T10:07:04;11.30;;;3.55;;
79088;SDS011;68489;50.286;9.452;2023-12-07T10:09:33;9.05;;;2.90;;
79088;SDS011;68489;50.286;9.452;2023-12-07T10:12:02;11.52;;;4.07;;
79088;SDS011;68489;50.286;9.452;2023-12-07T10:14:29;10.70;;;3.08;;
79088;SDS011;68489;50.286;9.452;2023-12-07T10:16:55;11.02;;;4.00;;
79088;SDS011;68489;50.286;9.452;2023-12-07T10:19:21;9.73;;;3.55;;
79088;SDS011;68489;50.286;9.452;2023-12-07T10:21:50;10.30;;;3.83;;
79088;SDS011;68489;50.286;9.452;2023-12-07T10:24:17;10.45;;;4.22;;
79088;SDS011;68489;50.286;9.452;2023-12-07T10:26:43;11.48;;;3.58;;
79088;SDS011;68489;50.286;9.452;2023-12-07T10:29:09;8.98;;;3.50;;
79088;SDS011;68489;50.286;9.452;2023-12-07T10:31:36;11.35;;;4.13;;
79088;SDS011;68489;50.286;9.452;2023-12-07T10:34:02;10.65;;;3.63;;
79088;SDS011;68489;50.286;9.452;2023-12-07T10:36:28;14.82;;;2.45;;
79088;SDS011;68489;50.286;9.452;2023-12-07T10:38:53;11.50;;;3.85;;
79088;SDS011;68489;50.286;9.452;2023-12-07T10:41:20;10.48;;;4.13;;
79088;SDS011;68489;50.286;9.452;2023-12-07T10:43:51;11.65;;;3.90;;
79088;SDS011;68489;50.286;9.452;2023-12-07T10:46:19;9.32;;;3.70;;
79088;SDS011;68489;50.286;9.452;2023-12-07T10:48:46;9.50;;;3.13;;
79088;SDS011;68489;50.286;9.452;2023-12-07T10:51:14;10.10;;;3.03;;
79088;SDS011;68489;50.286;9.452;2023-12-07T10:53:45;9.30;;;2.63;;
79088;SDS011;68489;50.286;9.452;2023-12-07T10:56:15;11.25;;;4.30;;
79088;SDS011;68489;50.286;9.452;2023-12-07T10:58:45;10.18;;;2.88;;
79088;SDS011;68489;50.286;9.452;2023-12-07T11:01:11;9.32;;;2.83;;
79088;SDS011;68489;50.286;9.452;2023-12-07T11:03:39;9.18;;;2.80;;
79088;SDS011;68489;50.286;9.452;2023-12-07T11:06:06;13.02;;;3.55;;
79088;SDS011;68489;50.286;9.452;2023-12-07T11:08:39;10.93;;;2.83;;
79088;SDS011;68489;50.286;9.452;2023-12-07T11:11:21;8.85;;;2.80;;
79088;SDS011;68489;50.286;9.452;2023-12-07T11:13:52;8.93;;;2.42;;
79088;SDS011;68489;50.286;9.452;2023-12-07T11:16:35;8.90;;;3.38;;
79088;SDS011;68489;50.286;9.452;2023-12-07T11:19:04;8.95;;;2.75;;
79088;SDS011;68489;50.286;9.452;2023-12-07T11:21:30;8.73;;;3.05;;
79088;SDS011;68489;50.286;9.452;2023-12-07T11:23:55;7.25;;;2.75;;
79088;SDS011;68489;50.286;9.452;2023-12-07T11:26:24;8.25;;;2.78;;
79088;SDS011;68489;50.286;9.452;2023-12-07T11:28:50;10.00;;;3.63;;
79088;SDS011;68489;50.286;9.452;2023-12-07T11:31:15;8.35;;;2.38;;
79088;SDS011;68489;50.286;9.452;2023-12-07T11:33:41;9.15;;;3.13;;
79088;SDS011;68489;50.286;9.452;2023-12-07T11:36:08;7.45;;;2.67;;
79088;SDS011;68489;50.286;9.452;2023-12-07T11:38:37;12.63;;;4.55;;
79088;SDS011;68489;50.286;9.452;2023-12-07T11:41:03;12.77;;;3.78;;
79088;SDS011;68489;50.286;9.452;2023-12-07T11:45:57;13.13;;;5.32;;
79088;SDS011;68489;50.286;9.452;2023-12-07T11:48:22;11.10;;;4.23;;
79088;SDS011;68489;50.286;9.452;2023-12-07T11:50:54;10.93;;;2.90;;
79088;SDS011;68489;50.286;9.452;2023-12-07T11:53:28;9.10;;;2.28;;
79088;SDS011;68489;50.286;9.452;2023-12-07T11:55:55;10.90;;;3.13;;
79088;SDS011;68489;50.286;9.452;2023-12-07T11:58:21;7.05;;;2.08;;
79088;SDS011;68489;50.286;9.452;2023-12-07T12:00:47;7.07;;;2.85;;
79088;SDS011;68489;50.286;9.452;2023-12-07T12:03:15;8.90;;;2.60;;
79088;SDS011;68489;50.286;9.452;2023-12-07T12:05:41;9.23;;;3.25;;
79088;SDS011;68489;50.286;9.452;2023-12-07T12:08:08;8.93;;;3.67;;
79088;SDS011;68489;50.286;9.452;2023-12-07T12:10:33;8.63;;;2.47;;
79088;SDS011;68489;50.286;9.452;2023-12-07T12:13:02;8.65;;;2.03;;
79088;SDS011;68489;50.286;9.452;2023-12-07T12:15:28;6.28;;;1.77;;
79088;SDS011;68489;50.286;9.452;2023-12-07T12:17:57;4.35;;;0.98;;
79088;SDS011;68489;50.286;9.452;2023-12-07T12:20:26;7.53;;;1.75;;
79088;SDS011;68489;50.286;9.452;2023-12-07T12:22:52;5.13;;;1.45;;
79088;SDS011;68489;50.286;9.452;2023-12-07T12:25:25;6.70;;;1.48;;
79088;SDS011;68489;50.286;9.452;2023-12-07T12:27:53;6.13;;;1.67;;
79088;SDS011;68489;50.286;9.452;2023-12-07T12:30:20;6.50;;;2.10;;
79088;SDS011;68489;50.286;9.452;2023-12-07T12:32:47;6.07;;;1.40;;
79088;SDS011;68489;50.286;9.452;2023-12-07T12:35:13;6.53;;;1.50;;
79088;SDS011;68489;50.286;9.452;2023-12-07T12:37:40;9.35;;;2.78;;
79088;SDS011;68489;50.286;9.452;2023-12-07T12:40:07;6.30;;;1.45;;
79088;SDS011;68489;50.286;9.452;2023-12-07T12:42:33;9.45;;;1.92;;
79088;SDS011;68489;50.286;9.452;2023-12-07T12:44:59;6.25;;;1.60;;
79088;SDS011;68489;50.286;9.452;2023-12-07T12:47:25;6.07;;;1.83;;
79088;SDS011;68489;50.286;9.452;2023-12-07T12:49:50;5.78;;;1.23;;
79088;SDS011;68489;50.286;9.452;2023-12-07T12:52:16;5.80;;;1.83;;
79088;SDS011;68489;50.286;9.452;2023-12-07T12:54:42;6.85;;;1.92;;
79088;SDS011;68489;50.286;9.452;2023-12-07T12:57:09;8.52;;;1.88;;
79088;SDS011;68489;50.286;9.452;2023-12-07T12:59:35;11.40;;;2.90;;
79088;SDS011;68489;50.286;9.452;2023-12-07T13:02:01;5.97;;;1.23;;
79088;SDS011;68489;50.286;9.452;2023-12-07T13:04:29;7.35;;;1.90;;
79088;SDS011;68489;50.286;9.452;2023-12-07T13:06:55;6.97;;;1.73;;
79088;SDS011;68489;50.286;9.452;2023-12-07T13:09:21;5.82;;;1.30;;
79088;SDS011;68489;50.286;9.452;2023-12-07T13:11:46;6.60;;;1.85;;
79088;SDS011;68489;50.286;9.452;2023-12-07T13:14:12;7.15;;;1.52;;
79088;SDS011;68489;50.286;9.452;2023-12-07T13:16:37;6.20;;;1.08;;
79088;SDS011;68489;50.286;9.452;2023-12-07T13:19:03;5.90;;;0.98;;
79088;SDS011;68489;50.286;9.452;2023-12-07T13:21:28;4.33;;;0.90;;
79088;SDS011;68489;50.286;9.452;2023-12-07T13:23:53;5.47;;;1.17;;
79088;SDS011;68489;50.286;9.452;2023-12-07T13:26:19;5.50;;;1.23;;
79088;SDS011;68489;50.286;9.452;2023-12-07T13:28:48;7.00;;;1.50;;
79088;SDS011;68489;50.286;9.452;2023-12-07T13:31:13;6.45;;;1.20;;
79088;SDS011;68489;50.286;9.452;2023-12-07T13:33:39;5.53;;;1.48;;
79088;SDS011;68489;50.286;9.452;2023-12-07T13:36:05;4.97;;;1.25;;
79088;SDS011;68489;50.286;9.452;2023-12-07T13:38:31;6.22;;;1.83;;
79088;SDS011;68489;50.286;9.452;2023-12-07T13:40:56;5.67;;;1.47;;
79088;SDS011;68489;50.286;9.452;2023-12-07T13:43:22;6.57;;;1.65;;
79088;SDS011;68489;50.286;9.452;2023-12-07T13:45:49;7.85;;;2.15;;
79088;SDS011;68489;50.286;9.452;2023-12-07T13:48:15;6.68;;;1.55;;
79088;SDS011;68489;50.286;9.452;2023-12-07T13:50:40;5.97;;;1.50;;
79088;SDS011;68489;50.286;9.452;2023-12-07T13:53:06;4.50;;;1.30;;
79088;SDS011;68489;50.286;9.452;2023-12-07T13:55:35;5.03;;;1.90;;
79088;SDS011;68489;50.286;9.452;2023-12-07T13:58:02;5.63;;;1.52;;
79088;SDS011;68489;50.286;9.452;2023-12-07T14:00:27;4.60;;;1.38;;
79088;SDS011;68489;50.286;9.452;2023-12-07T14:02:53;5.78;;;1.38;;
79088;SDS011;68489;50.286;9.452;2023-12-07T14:05:18;6.23;;;1.03;;
79088;SDS011;68489;50.286;9.452;2023-12-07T14:07:44;7.03;;;1.58;;
79088;SDS011;68489;50.286;9.452;2023-12-07T14:10:10;6.45;;;1.20;;
79088;SDS011;68489;50.286;9.452;2023-12-07T14:12:36;6.05;;;1.40;;
79088;SDS011;68489;50.286;9.452;2023-12-07T14:15:02;4.93;;;1.20;;
79088;SDS011;68489;50.286;9.452;2023-12-07T14:17:28;6.20;;;1.52;;
79088;SDS011;68489;50.286;9.452;2023-12-07T14:19:57;5.38;;;1.35;;
79088;SDS011;68489;50.286;9.452;2023-12-07T14:22:22;8.23;;;1.95;;
79088;SDS011;68489;50.286;9.452;2023-12-07T14:24:47;6.90;;;1.55;;
79088;SDS011;68489;50.286;9.452;2023-12-07T14:27:13;7.15;;;1.90;;
79088;SDS011;68489;50.286;9.452;2023-12-07T14:29:40;5.75;;;1.20;;
79088;SDS011;68489;50.286;9.452;2023-12-07T14:32:05;9.63;;;1.57;;
79088;SDS011;68489;50.286;9.452;2023-12-07T14:34:31;6.45;;;2.05;;
79088;SDS011;68489;50.286;9.452;2023-12-07T14:36:56;6.97;;;2.10;;
79088;SDS011;68489;50.286;9.452;2023-12-07T14:39:21;6.40;;;1.45;;